Terminal Aerodrome Forecast
Issued by NWS Bismarck, ND

Home | Current Version | Previous Version | Graphics & Text | Print | Product List | Glossary On
Versions: 1 2 3 4 5 6 7 8 9 10 11 12 13 14 15 16 17 18 19 20
000
FTUS43 KBIS 241100
TAFBIS
TAF
KBIS 241120Z 2412/2512 32015G22KT P6SM VCSH SCT025 BKN035
      TEMPO 2412/2415 -SHSN BKN025
     FM241500 34010KT P6SM VCSH BKN025 BKN120
     FM242200 03007KT P6SM -SHSN BKN035 OVC090
     FM250100 09007KT P6SM -SHSN BKN025 OVC050
     FM250400 08010KT 2SM -SN BR OVC015=

USA.gov is the U.S. government's official web portal to all federal, state and local government web resources and services.